Time;durP1;ratioP1;P1;durP2;ratioP2;P2;SDS_P1;SDS_P2;PMS_P1;PMS_P2;Temp;Humidity;BMP_temperature;BMP_pressure;BME280_temperature;BME280_humidity;BME280_pressure;Samples;Min_cycle;Max_cycle;Signal;HPM_P1;HPM_P2
2021/12/23 00:00:14;;;;;;;45.87;23.37;;;;;;;-1.49;100.00;101363.03;5089897;28;20205;-78
2021/12/23 00:02:42;;;;;;;51.53;23.60;;;;;;;-1.53;100.00;101340.66;5091544;28;20734;-79
2021/12/23 00:05:11;;;;;;;50.50;22.67;;;;;;;-1.37;100.00;101365.69;5081617;28;20213;-78
2021/12/23 00:07:38;;;;;;;49.13;22.00;;;;;;;-1.76;100.00;101308.25;5083025;28;20194;-77
2021/12/23 00:10:07;;;;;;;50.87;21.27;;;;;;;-1.54;100.00;101357.59;5093662;28;20620;-77
2021/12/23 00:12:38;;;;;;;46.30;21.80;;;;;;;-1.40;100.00;101378.16;5084579;28;20225;-78
2021/12/23 00:15:16;;;;;;;62.20;24.60;;;;;;;-1.36;100.00;101381.09;5077899;28;20234;-77
2021/12/23 00:17:58;;;;;;;56.93;25.50;;;;;;;-1.51;100.00;101375.63;5073230;28;20199;-78
2021/12/23 00:23:28;;;;;;;39.10;17.97;;;;;;;-1.11;100.00;101376.38;5084919;28;20296;-78
2021/12/23 00:25:58;;;;;;;36.77;17.57;;;;;;;-0.97;100.00;101380.94;5073353;28;20237;-77
2021/12/23 00:28:26;;;;;;;42.23;18.20;;;;;;;-1.02;100.00;101377.09;5080868;28;20198;-78
2021/12/23 00:30:52;;;;;;;39.93;18.67;;;;;;;-0.94;100.00;101380.28;5087156;28;20205;-78
2021/12/23 00:33:22;;;;;;;46.47;19.70;;;;;;;-0.86;100.00;101380.16;5084718;28;20190;-77
2021/12/23 00:35:49;;;;;;;36.03;18.73;;;;;;;-0.81;100.00;101385.59;5090415;28;20233;-78
2021/12/23 00:38:21;;;;;;;40.97;18.60;;;;;;;-0.87;100.00;101383.44;5081086;28;20249;-78
2021/12/23 00:40:48;;;;;;;33.20;18.20;;;;;;;-0.94;100.00;101376.09;5093055;28;20202;-78
2021/12/23 00:43:14;;;;;;;41.80;19.33;;;;;;;-0.92;100.00;101377.09;5080381;28;20214;-77
2021/12/23 00:45:41;;;;;;;38.07;18.43;;;;;;;-1.07;100.00;101337.69;5073033;28;20195;-78
2021/12/23 00:48:08;;;;;;;40.50;19.57;;;;;;;-0.90;100.00;101374.69;5090412;28;20224;-78
2021/12/23 00:50:36;;;;;;;37.00;19.97;;;;;;;-0.90;100.00;101373.03;5072767;28;20198;-77
2021/12/23 00:53:06;;;;;;;40.67;18.33;;;;;;;-1.10;100.00;101342.50;5086005;28;20234;-78
2021/12/23 00:55:34;;;;;;;35.67;17.63;;;;;;;-1.06;100.00;101367.44;5091236;28;20240;-78
2021/12/23 00:58:01;;;;;;;34.03;17.13;;;;;;;-1.34;100.00;101335.44;5090561;28;20195;-78
2021/12/23 01:00:29;;;;;;;44.93;18.43;;;;;;;-1.18;100.00;101369.00;5072210;28;20290;-78
2021/12/23 01:02:58;;;;;;;33.20;16.83;;;;;;;-1.28;100.00;101367.34;5084718;28;20190;-78
2021/12/23 01:05:25;;;;;;;35.93;16.53;;;;;;;-1.24;100.00;101355.75;5077082;28;20244;-77
2021/12/23 01:07:54;;;;;;;32.27;15.23;;;;;;;-1.54;100.00;101300.75;5084389;28;20195;-77
2021/12/23 01:10:23;;;;;;;37.37;17.87;;;;;;;-1.22;100.00;101366.97;5072156;28;20202;-77
2021/12/23 01:12:57;;;;;;;39.43;18.60;;;;;;;-1.18;100.00;101358.84;5082911;28;20194;-77
2021/12/23 01:15:59;;;;;;;49.40;21.47;;;;;;;-1.14;100.00;101356.63;5092594;28;20316;-78
2021/12/23 01:18:29;;;;;;;48.50;21.03;;;;;;;-1.10;100.00;101339.97;5077945;28;20608;-78
2021/12/23 01:21:03;;;;;;;49.80;21.47;;;;;;;-1.04;100.00;101353.19;5092262;28;20608;-77
2021/12/23 01:23:39;;;;;;;42.70;20.20;;;;;;;-1.01;100.00;101356.00;5074986;28;20689;-78
2021/12/23 01:26:06;;;;;;;39.90;17.43;;;;;;;-1.13;100.00;101349.91;5075796;28;20277;-77
2021/12/23 01:28:33;;;;;;;47.70;21.83;;;;;;;-1.20;100.00;101338.34;5092221;28;20193;-77
2021/12/23 01:31:00;;;;;;;52.87;24.07;;;;;;;-1.09;100.00;101357.00;5084540;28;20194;-77
2021/12/23 01:33:27;;;;;;;53.57;24.17;;;;;;;-1.07;100.00;101355.50;5075802;28;20187;-78
2021/12/23 01:35:53;;;;;;;45.10;22.50;;;;;;;-1.02;100.00;101356.75;5071481;28;20314;-77
2021/12/23 01:38:20;;;;;;;57.47;24.10;;;;;;;-0.97;100.00;101355.47;5071738;28;20219;-77
2021/12/23 01:40:49;;;;;;;34.73;19.10;;;;;;;-0.98;100.00;101355.34;5072341;28;20195;-77
2021/12/23 01:43:17;;;;;;;50.10;21.63;;;;;;;-1.01;100.00;101364.53;5079054;28;20209;-77
2021/12/23 01:45:46;;;;;;;44.83;20.23;;;;;;;-0.94;100.00;101365.00;5081602;28;20190;-78
2021/12/23 01:48:14;;;;;;;40.37;19.03;;;;;;;-1.07;100.00;101332.59;5091618;28;20201;-76
2021/12/23 01:50:41;;;;;;;38.30;17.90;;;;;;;-0.86;100.00;101359.78;5074099;28;20202;-77
2021/12/23 01:53:09;;;;;;;40.60;19.53;;;;;;;-0.73;100.00;101375.25;5084328;28;20260;-78
2021/12/23 01:55:38;;;;;;;44.57;19.63;;;;;;;-0.71;100.00;101376.25;5091630;28;20626;-78
2021/12/23 01:58:08;;;;;;;39.70;17.63;;;;;;;-0.65;100.00;101381.88;5090338;28;20189;-76
2021/12/23 02:00:37;;;;;;;39.83;17.60;;;;;;;-0.57;100.00;101383.34;5071835;28;20202;-77
2021/12/23 02:03:05;;;;;;;36.00;18.23;;;;;;;-0.58;100.00;101376.50;5084169;28;20197;-77
2021/12/23 02:05:32;;;;;;;38.77;17.07;;;;;;;-0.53;100.00;101376.84;5072675;28;20202;-77
2021/12/23 02:07:59;;;;;;;41.60;19.10;;;;;;;-0.51;100.00;101381.31;5090634;28;20563;-77
2021/12/23 02:10:28;;;;;;;45.87;23.07;;;;;;;-0.48;100.00;101374.66;5091342;28;20613;-77
2021/12/23 02:12:55;;;;;;;43.13;20.10;;;;;;;-0.47;100.00;101376.44;5081641;28;20191;-77
2021/12/23 02:15:24;;;;;;;43.97;21.00;;;;;;;-0.38;100.00;101372.06;5072001;28;20226;-78
2021/12/23 02:17:52;;;;;;;51.70;24.03;;;;;;;-0.98;100.00;101290.06;5081233;28;20216;-78
2021/12/23 02:20:22;;;;;;;42.83;21.40;;;;;;;-0.43;100.00;101358.09;5091515;28;20222;-78
2021/12/23 02:22:49;;;;;;;35.00;19.00;;;;;;;-0.45;100.00;101357.06;5091517;28;20194;-78
2021/12/23 02:25:17;;;;;;;38.93;17.43;;;;;;;-0.40;100.00;101379.59;5091272;28;20193;-78
2021/12/23 02:27:45;;;;;;;34.30;17.47;;;;;;;-0.66;100.00;101349.53;5083092;28;20268;-77
2021/12/23 02:30:18;;;;;;;30.53;15.67;;;;;;;-0.48;100.00;101380.66;5074141;28;20190;-77
2021/12/23 02:32:46;;;;;;;34.23;15.43;;;;;;;-0.57;100.00;101373.16;5091419;28;20668;-77
2021/12/23 02:35:16;;;;;;;23.83;13.20;;;;;;;-1.09;100.00;101329.03;5094976;28;20605;-78
2021/12/23 02:37:46;;;;;;;31.33;14.97;;;;;;;-1.31;100.00;101295.88;5084039;28;20221;-77
2021/12/23 02:40:24;;;;;;;29.00;13.73;;;;;;;-0.78;100.00;101376.53;5095422;28;20190;-77
2021/12/23 02:42:51;;;;;;;21.47;13.43;;;;;;;-1.01;100.00;101343.25;5093774;28;20197;-77
2021/12/23 02:45:18;;;;;;;18.17;10.77;;;;;;;-0.96;100.00;101382.69;5082284;28;20739;-76
2021/12/23 02:47:45;;;;;;;21.93;11.57;;;;;;;-1.07;100.00;101373.31;5083188;28;20190;-76
2021/12/23 02:50:11;;;;;;;22.53;11.67;;;;;;;-1.38;100.00;101358.84;5094910;28;20691;-77
2021/12/23 02:52:38;;;;;;;26.17;11.97;;;;;;;-1.33;100.00;101380.47;5095356;28;20190;-79
2021/12/23 02:55:07;;;;;;;21.77;11.53;;;;;;;-1.45;100.00;101367.59;5086820;28;20191;-77
2021/12/23 02:57:35;;;;;;;22.87;12.37;;;;;;;-2.04;100.00;101292.38;5074654;28;20680;-78
2021/12/23 03:00:02;;;;;;;23.33;12.97;;;;;;;-1.56;100.00;101369.28;5086051;28;20198;-77
2021/12/23 03:02:29;;;;;;;22.30;11.63;;;;;;;-1.40;100.00;101360.38;5092907;28;20595;-77
2021/12/23 03:04:56;;;;;;;23.47;11.80;;;;;;;-1.36;100.00;101363.31;5074591;28;20201;-77
2021/12/23 03:07:22;;;;;;;23.47;13.63;;;;;;;-1.27;100.00;101360.59;5078489;28;20191;-77
2021/12/23 03:09:49;;;;;;;29.27;13.43;;;;;;;-1.20;100.00;101361.22;5094637;28;20194;-78
2021/12/23 03:12:17;;;;;;;28.23;12.83;;;;;;;-1.18;100.00;101363.91;5080405;28;20643;-77
2021/12/23 03:14:44;;;;;;;23.57;13.50;;;;;;;-1.19;100.00;101369.75;5080207;28;20194;-77
2021/12/23 03:17:11;;;;;;;28.23;14.17;;;;;;;-1.15;100.00;101364.16;5076377;28;20590;-76
2021/12/23 03:19:38;;;;;;;26.10;13.13;;;;;;;-1.18;100.00;101341.03;5094568;28;20271;-78
2021/12/23 03:22:05;;;;;;;28.40;15.10;;;;;;;-1.12;100.00;101351.69;5094084;28;20190;-78
2021/12/23 03:24:34;;;;;;;25.70;14.30;;;;;;;-1.19;100.00;101357.94;5094423;28;20254;-77
2021/12/23 03:27:00;;;;;;;23.47;12.03;;;;;;;-1.41;100.00;101359.47;5092900;28;20206;-78
2021/12/23 03:29:29;;;;;;;23.57;12.77;;;;;;;-1.67;100.00;101364.94;5075435;28;20194;-77
2021/12/23 03:31:56;;;;;;;23.93;12.90;;;;;;;-1.80;100.00;101362.13;5074350;28;20202;-77
2021/12/23 03:34:23;;;;;;;26.83;15.03;;;;;;;-2.15;100.00;101299.84;5092346;28;20197;-77
2021/12/23 03:36:50;;;;;;;24.70;13.43;;;;;;;-1.82;100.00;101372.94;5093460;28;20226;-77
2021/12/23 03:39:17;;;;;;;28.80;14.47;;;;;;;-2.18;100.00;101300.50;5079665;28;20190;-79
2021/12/23 03:41:44;;;;;;;22.53;13.57;;;;;;;-1.77;100.00;101369.13;5093797;28;20210;-77
2021/12/23 03:44:11;;;;;;;24.37;11.77;;;;;;;-1.81;100.00;101359.47;5081029;28;20206;-77
2021/12/23 03:46:39;;;;;;;27.17;14.03;;;;;;;-2.18;100.00;101294.50;5073729;28;20570;-77
2021/12/23 03:49:07;;;;;;;28.33;14.00;;;;;;;-1.76;100.00;101359.09;5089658;28;20209;-77
2021/12/23 03:51:34;;;;;;;24.03;12.40;;;;;;;-1.71;100.00;101362.91;5088443;28;20190;-77
2021/12/23 03:54:02;;;;;;;30.20;16.87;;;;;;;-1.66;100.00;101364.19;5074037;28;20191;-78
2021/12/23 03:56:29;;;;;;;32.83;16.07;;;;;;;-1.71;100.00;101362.91;5074823;28;20239;-78
2021/12/23 03:58:57;;;;;;;29.30;14.83;;;;;;;-1.72;100.00;101371.31;5087963;28;20194;-78
2021/12/23 04:01:24;;;;;;;34.73;15.03;;;;;;;-1.74;100.00;101367.72;5081099;28;20696;-79
2021/12/23 04:03:53;;;;;;;32.73;15.43;;;;;;;-1.81;100.00;101365.44;5074406;28;20705;-78
2021/12/23 04:06:21;;;;;;;31.70;15.20;;;;;;;-1.71;100.00;101375.59;5073603;28;20198;-78
2021/12/23 04:08:48;;;;;;;33.27;15.60;;;;;;;-1.78;100.00;101365.69;5074894;28;20191;-77
2021/12/23 04:11:15;;;;;;;32.60;16.07;;;;;;;-1.90;100.00;101369.75;5075625;28;20183;-77
2021/12/23 04:13:42;;;;;;;29.73;15.37;;;;;;;-2.03;100.00;101362.72;5092072;28;20190;-77
2021/12/23 04:16:09;;;;;;;29.37;15.60;;;;;;;-1.94;100.00;101375.34;5094419;28;20660;-77
2021/12/23 04:18:36;;;;;;;29.90;15.83;;;;;;;-1.95;100.00;101376.09;5094571;28;20193;-77
2021/12/23 04:21:04;;;;;;;28.77;15.57;;;;;;;-2.11;100.00;101355.25;5094922;28;20225;-77
2021/12/23 04:23:33;;;;;;;27.83;16.07;;;;;;;-2.00;100.00;101377.38;5081351;28;20686;-77
2021/12/23 04:26:00;;;;;;;29.80;17.03;;;;;;;-2.05;100.00;101369.34;5093280;28;20228;-79
2021/12/23 04:28:28;;;;;;;31.97;17.90;;;;;;;-2.04;100.00;101373.69;5072807;28;20688;-78
2021/12/23 04:30:55;;;;;;;39.90;18.97;;;;;;;-2.06;100.00;101375.19;5075095;28;20191;-78
2021/12/23 04:33:22;;;;;;;40.97;19.87;;;;;;;-2.07;100.00;101373.38;5087183;28;20198;-77
2021/12/23 04:35:49;;;;;;;39.30;19.97;;;;;;;-2.74;100.00;101267.69;5092351;28;20230;-77
2021/12/23 04:38:17;;;;;;;40.63;21.60;;;;;;;-2.47;100.00;101306.38;5092655;28;20738;-78
2021/12/23 04:40:44;;;;;;;45.73;23.53;;;;;;;-2.08;100.00;101378.34;5093025;28;20195;-77
2021/12/23 04:43:11;;;;;;;50.30;24.30;;;;;;;-2.11;100.00;101373.03;5080876;28;20205;-77
2021/12/23 04:45:38;;;;;;;48.07;23.07;;;;;;;-2.10;100.00;101378.22;5092702;28;20186;-78
2021/12/23 04:48:05;;;;;;;50.70;24.23;;;;;;;-2.27;100.00;101345.41;5089039;28;20699;-77
2021/12/23 04:50:32;;;;;;;43.37;22.33;;;;;;;-2.18;100.00;101364.00;5092594;28;20564;-76
2021/12/23 04:52:59;;;;;;;41.77;23.73;;;;;;;-2.09;100.00;101381.66;5081188;28;20199;-76
2021/12/23 04:55:28;;;;;;;46.47;21.17;;;;;;;-2.64;100.00;101295.66;5072366;28;20693;-78
2021/12/23 04:57:55;;;;;;;43.13;22.60;;;;;;;-2.55;100.00;101310.78;5072907;28;20624;-78
2021/12/23 05:00:23;;;;;;;42.10;22.40;;;;;;;-2.17;100.00;101385.19;5076847;28;20213;-77
2021/12/23 05:02:49;;;;;;;47.33;22.47;;;;;;;-2.18;100.00;101385.97;5077327;28;20206;-77
2021/12/23 05:05:17;;;;;;;46.97;22.67;;;;;;;-2.23;100.00;101390.63;5073263;28;20589;-77
2021/12/23 05:07:45;;;;;;;43.27;20.90;;;;;;;-2.28;100.00;101388.47;5081247;28;20552;-79
2021/12/23 05:10:14;;;;;;;39.33;21.40;;;;;;;-2.29;100.00;101387.56;5092326;28;20201;-76
2021/12/23 05:12:46;;;;;;;45.70;22.37;;;;;;;-2.54;100.00;101343.94;5084378;28;20187;-81
2021/12/23 05:15:16;;;;;;;42.90;20.87;;;;;;;-2.55;100.00;101349.78;5088666;28;20618;-82
2021/12/23 05:17:45;;;;;;;38.20;20.67;;;;;;;-2.34;100.00;101382.84;5092635;28;20210;-82
2021/12/23 05:20:13;;;;;;;44.60;19.67;;;;;;;-2.46;100.00;101359.81;5092244;28;20225;-81
2021/12/23 05:22:41;;;;;;;44.30;21.83;;;;;;;-2.45;100.00;101355.63;5084297;28;20198;-82
2021/12/23 05:25:09;;;;;;;44.80;21.63;;;;;;;-2.33;100.00;101387.16;5073950;28;20681;-79
2021/12/23 05:27:37;;;;;;;47.30;21.57;;;;;;;-2.36;100.00;101386.91;5082601;28;20209;-79
2021/12/23 05:30:07;;;;;;;62.00;31.67;;;;;;;-2.89;100.00;101298.50;5076068;28;20201;-80
2021/12/23 05:32:34;;;;;;;45.60;23.13;;;;;;;-2.63;100.00;101348.19;5080112;28;20195;-79
2021/12/23 05:35:01;;;;;;;47.33;22.03;;;;;;;-2.63;100.00;101353.28;5073001;28;20205;-82
2021/12/23 05:37:27;;;;;;;47.27;20.77;;;;;;;-2.37;100.00;101387.66;5070312;28;20231;-82
2021/12/23 05:39:54;;;;;;;52.07;24.27;;;;;;;-2.38;100.00;101385.88;5087372;28;20201;-80
2021/12/23 05:42:21;;;;;;;46.27;21.13;;;;;;;-2.43;100.00;101382.06;5086193;28;20198;-79
2021/12/23 05:44:48;;;;;;;47.47;21.20;;;;;;;-2.75;100.00;101346.25;5081707;28;20195;-83
2021/12/23 05:47:16;;;;;;;70.90;26.23;;;;;;;-2.55;100.00;101382.78;5093957;28;20197;-79
2021/12/23 05:49:43;;;;;;;108.80;35.43;;;;;;;-2.76;100.00;101360.59;5094299;28;20552;-83
2021/12/23 05:52:10;;;;;;;94.40;33.07;;;;;;;-2.67;100.00;101386.75;5077777;28;20195;-75
2021/12/23 05:54:36;;;;;;;136.70;42.40;;;;;;;-2.88;100.00;101334.13;5093206;28;20190;-83
2021/12/23 05:57:04;;;;;;;229.10;60.87;;;;;;;-2.63;100.00;101377.78;5093658;28;20249;-80
2021/12/23 05:59:31;;;;;;;245.17;67.00;;;;;;;-2.65;100.00;101384.38;5079713;28;20199;-79
2021/12/23 06:01:59;;;;;;;134.47;46.37;;;;;;;-2.67;100.00;101376.59;5082673;28;20669;-80
2021/12/23 06:04:27;;;;;;;124.53;41.47;;;;;;;-2.64;100.00;101386.16;5085906;28;20194;-75
2021/12/23 06:06:54;;;;;;;80.07;30.83;;;;;;;-2.64;100.00;101381.94;5072764;28;20191;-73
2021/12/23 06:09:21;;;;;;;38.63;17.03;;;;;;;-2.77;100.00;101330.88;5071645;28;20206;-81
2021/12/23 06:11:48;;;;;;;41.87;18.47;;;;;;;-2.41;100.00;101383.06;5079399;28;20194;-81
2021/12/23 06:14:16;;;;;;;51.00;22.00;;;;;;;-2.37;100.00;101382.56;5075889;28;20191;-79
2021/12/23 06:16:43;;;;;;;55.83;25.27;;;;;;;-2.25;100.00;101382.00;5072409;28;20231;-80
2021/12/23 06:19:10;;;;;;;83.87;39.27;;;;;;;-2.14;100.00;101385.47;5071365;28;20646;-79
2021/12/23 06:21:38;;;;;;;92.93;42.37;;;;;;;-1.96;100.00;101389.53;5075008;28;20190;-75
2021/12/23 06:24:05;;;;;;;69.83;32.83;;;;;;;-1.82;100.00;101396.69;5080522;28;20186;-79
2021/12/23 06:26:33;;;;;;;69.37;30.90;;;;;;;-1.86;100.00;101399.75;5083600;28;20195;-79
2021/12/23 06:29:00;;;;;;;78.00;35.77;;;;;;;-2.02;100.00;101381.41;5096847;28;20683;-82
2021/12/23 06:31:27;;;;;;;72.40;32.20;;;;;;;-1.86;100.00;101406.50;5082841;28;20225;-79
2021/12/23 06:33:54;;;;;;;73.97;32.03;;;;;;;-1.90;100.00;101406.97;5086265;28;20195;-78
2021/12/23 06:36:20;;;;;;;85.50;37.60;;;;;;;-2.43;100.00;101322.00;5094861;28;20590;-80
2021/12/23 06:38:49;;;;;;;57.07;26.53;;;;;;;-1.88;100.00;101413.97;5090639;28;20191;-79
2021/12/23 06:41:17;;;;;;;63.53;29.57;;;;;;;-1.90;100.00;101409.53;5078953;28;20191;-80
2021/12/23 06:43:45;;;;;;;53.30;25.70;;;;;;;-1.87;100.00;101418.31;5078161;28;20190;-83
2021/12/23 06:46:12;;;;;;;45.90;23.43;;;;;;;-1.90;100.00;101425.66;5080962;28;20269;-78
2021/12/23 06:48:39;;;;;;;54.37;25.10;;;;;;;-1.89;100.00;101427.44;5073576;28;20199;-78
2021/12/23 06:51:06;;;;;;;48.57;21.77;;;;;;;-1.78;100.00;101430.88;5077582;28;20191;-79
2021/12/23 06:53:33;;;;;;;50.60;23.63;;;;;;;-1.83;100.00;101399.13;5075197;28;20187;-79
2021/12/23 06:56:02;;;;;;;63.93;28.23;;;;;;;-1.29;100.00;101415.56;5073661;28;20203;-77
2021/12/23 06:58:31;;;;;;;52.03;25.20;;;;;;;-1.48;100.00;101399.53;5073154;28;20223;-81
2021/12/23 07:00:58;;;;;;;42.73;21.07;;;;;;;-1.30;100.00;101418.88;5072794;28;20210;-78
2021/12/23 07:03:32;;;;;;;50.97;21.20;;;;;;;-1.32;100.00;101417.88;5075098;28;20198;-78
2021/12/23 07:06:05;;;;;;;34.37;17.83;;;;;;;-1.38;100.00;101425.84;5077413;28;20562;-79
2021/12/23 07:08:34;;;;;;;36.23;17.37;;;;;;;-1.45;100.00;101421.03;5073494;28;20206;-77
2021/12/23 07:11:02;;;;;;;30.30;15.77;;;;;;;-1.52;100.00;101416.19;5073793;28;20203;-81
2021/12/23 07:13:29;;;;;;;35.60;16.90;;;;;;;-1.55;100.00;101421.91;5072924;28;20696;-81
2021/12/23 07:16:00;;;;;;;37.70;17.10;;;;;;;-1.63;100.00;101379.69;5073872;28;20198;-78
2021/12/23 07:18:27;;;;;;;31.23;16.20;;;;;;;-1.40;100.00;101419.75;5076293;28;20720;-79
2021/12/23 07:20:54;;;;;;;29.30;15.03;;;;;;;-1.72;100.00;101355.16;5078242;28;20215;-80
2021/12/23 07:23:20;;;;;;;30.67;17.23;;;;;;;-1.16;100.00;101418.34;5077427;28;20198;-79
2021/12/23 07:25:47;;;;;;;28.63;15.80;;;;;;;-1.14;100.00;101411.75;5075532;28;20256;-80
2021/12/23 07:28:16;;;;;;;27.43;16.23;;;;;;;-1.12;100.00;101417.84;5075870;28;20206;-80
2021/12/23 07:30:42;;;;;;;32.77;15.80;;;;;;;-1.25;100.00;101412.53;5075428;28;20214;-80
2021/12/23 07:33:09;;;;;;;31.37;15.93;;;;;;;-1.19;100.00;101419.00;5074857;28;20585;-76
2021/12/23 07:35:36;;;;;;;28.33;15.60;;;;;;;-1.17;100.00;101386.03;5076178;28;20197;-73
2021/12/23 07:38:03;;;;;;;31.70;14.33;;;;;;;-0.97;100.00;101406.38;5073777;28;20231;-77
2021/12/23 07:40:31;;;;;;;30.10;15.17;;;;;;;-1.00;100.00;101411.22;5075720;28;20588;-77
2021/12/23 07:43:09;;;;;;;31.00;14.57;;;;;;;-1.02;100.00;101410.19;5075769;28;20212;-77
2021/12/23 07:45:38;;;;;;;26.27;13.57;;;;;;;-1.03;100.00;101413.50;5076830;28;20202;-77
2021/12/23 07:48:05;;;;;;;29.20;14.60;;;;;;;-1.03;100.00;101416.03;5078925;28;20199;-77
2021/12/23 07:50:32;;;;;;;26.53;13.67;;;;;;;-1.06;100.00;101426.88;5079844;28;20191;-76
2021/12/23 07:52:59;;;;;;;26.50;15.23;;;;;;;-1.39;100.00;101354.53;5082131;28;20191;-78
2021/12/23 07:55:26;;;;;;;28.43;17.20;;;;;;;-1.39;100.00;101392.69;5077867;28;20195;-78
2021/12/23 07:57:53;;;;;;;33.23;15.43;;;;;;;-1.10;100.00;101441.75;5075519;28;20230;-77
2021/12/23 08:00:20;;;;;;;33.80;18.67;;;;;;;-1.08;100.00;101435.16;5078770;28;20198;-77
2021/12/23 08:02:49;;;;;;;32.47;18.03;;;;;;;-0.93;100.00;101432.97;5077867;28;20191;-78
2021/12/23 08:05:16;;;;;;;32.23;18.10;;;;;;;-0.75;100.00;101427.69;5074801;28;20191;-77
2021/12/23 08:07:43;;;;;;;37.97;18.43;;;;;;;-0.69;100.00;101424.78;5075377;28;20252;-79
2021/12/23 08:10:10;;;;;;;34.00;18.30;;;;;;;-0.68;100.00;101419.78;5076033;28;20262;-77
2021/12/23 08:12:37;;;;;;;36.07;16.43;;;;;;;-0.64;100.00;101409.09;5075728;28;20209;-75
2021/12/23 08:15:05;;;;;;;36.30;17.93;;;;;;;-0.63;100.00;101431.25;5075543;28;20198;-77
2021/12/23 08:17:31;;;;;;;32.93;15.60;;;;;;;-0.57;100.00;101415.59;5074450;28;20237;-82
2021/12/23 08:20:00;;;;;;;32.27;16.83;;;;;;;-0.50;100.00;101392.38;5073877;28;20215;-78
2021/12/23 08:22:26;;;;;;;42.00;21.10;;;;;;;-0.36;100.00;101417.28;5075271;28;20194;-77
2021/12/23 08:24:53;;;;;;;38.47;20.67;;;;;;;-0.29;100.00;101414.47;5078002;28;20588;-76
2021/12/23 08:27:21;;;;;;;34.83;17.70;;;;;;;-0.15;100.00;101424.09;5074669;28;20435;-78
2021/12/23 08:29:48;;;;;;;38.17;17.20;;;;;;;-0.01;100.00;101425.16;5079144;28;20597;-78
2021/12/23 08:32:15;;;;;;;34.83;18.50;;;;;;;-1.26;100.00;101197.03;5093358;28;20548;-79
2021/12/23 08:34:41;;;;;;;27.70;15.20;;;;;;;0.22;100.00;101430.38;5095026;28;20213;-81
2021/12/23 08:37:11;;;;;;;34.17;17.50;;;;;;;-1.01;100.00;101175.28;5093135;28;20237;-82
2021/12/23 08:39:38;;;;;;;33.73;17.33;;;;;;;0.33;100.00;101432.09;5092978;28;20236;-80
2021/12/23 08:42:05;;;;;;;28.33;16.37;;;;;;;0.43;100.00;101414.16;5094387;28;20206;-80
2021/12/23 08:44:32;;;;;;;32.77;17.43;;;;;;;0.91;100.00;101436.50;5094841;28;20576;-80
2021/12/23 08:46:58;;;;;;;75.33;30.10;;;;;;;1.13;100.00;101439.00;5094467;28;20194;-82
2021/12/23 08:49:25;;;;;;;39.80;20.10;;;;;;;0.82;100.00;101435.84;5095256;28;20631;-78
2021/12/23 08:51:53;;;;;;;38.47;17.30;;;;;;;1.06;100.00;101412.13;5094837;28;20209;-81
2021/12/23 08:54:21;;;;;;;39.70;20.57;;;;;;;1.10;100.00;101409.00;5093709;28;20198;-82
2021/12/23 08:56:48;;;;;;;29.63;16.37;;;;;;;1.39;100.00;101414.56;5093727;28;20190;-77
2021/12/23 08:59:15;;;;;;;43.10;20.10;;;;;;;1.18;100.00;101391.69;5092597;28;20195;-81
2021/12/23 09:01:42;;;;;;;53.10;21.90;;;;;;;1.39;100.00;101409.44;5094202;28;20205;-74
2021/12/23 09:04:09;;;;;;;50.83;20.57;;;;;;;1.03;100.00;101349.72;5093635;28;20704;-82
2021/12/23 09:06:36;;;;;;;62.90;25.57;;;;;;;1.76;100.00;101418.09;5093248;28;20251;-82
2021/12/23 09:09:03;;;;;;;58.43;22.47;;;;;;;1.70;100.00;101412.56;5094386;28;20669;-83
2021/12/23 09:11:32;;;;;;;59.67;21.60;;;;;;;1.50;100.00;101383.00;5094863;28;20201;-82
2021/12/23 09:13:58;;;;;;;33.40;15.53;;;;;;;1.28;100.00;101406.91;5093421;28;20202;-83
2021/12/23 09:16:25;;;;;;;29.77;14.67;;;;;;;1.10;100.00;101406.47;5094296;28;20198;-81
2021/12/23 09:18:52;;;;;;;28.13;13.70;;;;;;;1.22;100.00;101399.66;5092945;28;20245;-83
2021/12/23 09:21:19;;;;;;;37.80;14.93;;;;;;;1.38;100.00;101394.91;5092688;28;20213;-82
2021/12/23 09:23:46;;;;;;;24.03;10.17;;;;;;;1.37;100.00;101390.56;5093959;28;20225;-83
2021/12/23 09:26:13;;;;;;;25.63;12.67;;;;;;;0.28;100.00;101173.28;5093046;28;20197;-84
2021/12/23 09:28:55;;;;;;;30.80;13.87;;;;;;;1.30;100.00;101321.94;5092977;28;20661;-82
2021/12/23 09:34:07;;;;;;;29.57;13.63;;;;;;;1.76;100.00;101381.41;5092483;28;20224;-82
2021/12/23 09:36:34;;;;;;;25.90;12.27;;;;;;;1.76;100.00;101391.63;5092216;28;20198;-77
2021/12/23 09:39:01;;;;;;;23.73;12.43;;;;;;;1.96;100.00;101384.56;5091943;28;20217;-81
2021/12/23 09:41:29;;;;;;;26.00;14.43;;;;;;;1.86;100.00;101368.47;5091897;28;20272;-81
2021/12/23 09:43:59;;;;;;;22.80;11.13;;;;;;;1.87;100.00;101380.50;5092291;28;20198;-82
2021/12/23 09:46:26;;;;;;;23.67;11.80;;;;;;;2.06;100.00;101367.31;5092677;28;20204;-78
2021/12/23 09:48:53;;;;;;;22.23;11.80;;;;;;;2.00;100.00;101365.22;5092002;28;20206;-75
2021/12/23 09:51:24;;;;;;;29.70;12.27;;;;;;;2.12;100.00;101366.06;5091762;28;20669;-76
2021/12/23 09:53:57;;;;;;;28.47;10.67;;;;;;;2.27;100.00;101358.56;5089806;28;20683;-78
2021/12/23 09:56:24;;;;;;;16.57;10.00;;;;;;;1.75;100.00;101241.59;5094554;28;20676;-79
2021/12/23 09:58:51;;;;;;;21.30;11.20;;;;;;;2.56;100.00;101340.94;5093040;28;20222;-80
2021/12/23 10:01:20;;;;;;;24.70;12.70;;;;;;;2.15;100.00;101269.06;5094800;28;20193;-78
2021/12/23 10:03:47;;;;;;;21.90;10.53;;;;;;;2.46;98.48;101331.75;5098074;28;20570;-79
2021/12/23 10:06:14;;;;;;;22.97;10.73;;;;;;;2.54;97.15;101328.81;5092498;28;20613;-78
2021/12/23 10:08:41;;;;;;;22.10;12.50;;;;;;;2.46;96.66;101306.16;5092019;28;20198;-80
2021/12/23 10:11:17;;;;;;;22.77;11.33;;;;;;;2.06;94.86;101255.69;5092467;28;20194;-81
2021/12/23 10:38:30;;;;;;;22.53;11.27;;;;;;;1.81;98.14;101198.53;5090517;28;20237;-79
2021/12/23 10:40:59;;;;;;;15.30;8.50;;;;;;;2.19;97.08;101278.72;5092275;28;20190;-80
2021/12/23 10:43:31;;;;;;;19.20;10.50;;;;;;;2.21;96.15;101277.13;5091860;28;20194;-81
2021/12/23 10:46:00;;;;;;;19.87;11.17;;;;;;;2.08;95.64;101260.88;5093041;28;20225;-78
2021/12/23 10:48:32;;;;;;;22.90;10.20;;;;;;;2.15;95.28;101265.63;5093792;28;20190;-81
2021/12/23 10:51:05;;;;;;;23.60;11.40;;;;;;;1.62;99.68;101177.63;5094369;28;20217;-80
2021/12/23 10:53:53;;;;;;;18.07;10.83;;;;;;;2.09;98.36;101257.53;5097276;28;20194;-81
2021/12/23 10:59:10;;;;;;;21.60;10.40;;;;;;;2.12;96.36;101243.28;5098971;28;20311;-80
2021/12/23 11:01:58;;;;;;;18.63;9.00;;;;;;;1.83;93.78;101204.63;5096480;28;20198;-81
2021/12/23 11:04:28;;;;;;;17.73;9.57;;;;;;;1.67;93.32;101197.63;5097174;28;20194;-80
2021/12/23 11:07:21;;;;;;;19.10;10.60;;;;;;;1.87;93.11;101239.84;5098949;28;20694;-80
2021/12/23 11:10:02;;;;;;;23.13;12.43;;;;;;;1.93;89.89;101236.03;5098360;28;20278;-81
2021/12/23 11:37:53;;;;;;;24.27;11.43;;;;;;;1.86;86.70;101226.19;5095958;28;20728;-80
2021/12/23 11:40:49;;;;;;;20.23;10.63;;;;;;;0.92;86.11;101029.81;5095564;28;20621;-80
2021/12/23 11:46:09;;;;;;;23.90;11.73;;;;;;;2.10;86.20;101226.97;5070687;28;20201;-79
2021/12/23 11:48:41;;;;;;;24.47;11.83;;;;;;;2.06;83.35;101199.41;5096029;28;20194;-81
2021/12/23 11:51:15;;;;;;;21.57;9.83;;;;;;;2.23;80.97;101219.31;5094215;28;20198;-80
2021/12/23 11:53:47;;;;;;;15.00;8.00;;;;;;;2.14;80.32;101213.56;5094424;28;20194;-80
2021/12/23 11:56:15;;;;;;;15.73;9.37;;;;;;;1.56;81.53;101115.88;5094335;28;20346;-80
2021/12/23 11:58:45;;;;;;;22.17;11.47;;;;;;;2.07;82.75;101190.06;5094815;28;20286;-79
2021/12/23 12:01:17;;;;;;;22.27;10.90;;;;;;;1.93;82.51;101169.56;5093900;28;20621;-79
2021/12/23 12:03:55;;;;;;;31.63;10.60;;;;;;;2.15;81.44;101191.44;5093533;28;20209;-78
2021/12/23 12:06:24;;;;;;;19.60;10.47;;;;;;;2.05;80.26;101182.28;5093681;28;20695;-79
2021/12/23 12:08:55;;;;;;;14.50;8.63;;;;;;;2.05;80.76;101172.03;5093854;28;20665;-79
2021/12/23 12:11:25;;;;;;;21.13;10.50;;;;;;;2.02;81.09;101171.84;5093596;28;20672;-79